createdAt,value
2018-08-10T00:00:31.035Z,9.50
2018-08-10T00:02:59.952Z,10.63
2018-08-10T00:05:28.505Z,11.07
2018-08-10T00:07:57.066Z,11.27
2018-08-10T00:10:25.609Z,13.70
2018-08-10T00:12:54.260Z,12.13
2018-08-10T00:15:22.840Z,12.47
2018-08-10T00:17:51.366Z,12.57
2018-08-10T00:20:19.915Z,13.17
2018-08-10T00:22:48.430Z,13.30
2018-08-10T00:25:18.121Z,12.13
2018-08-10T00:27:46.707Z,13.57
2018-08-10T00:30:18.782Z,15.13
2018-08-10T00:32:49.379Z,15.77
2018-08-10T00:35:18.037Z,13.70
2018-08-10T00:37:47.916Z,15.20
2018-08-10T00:40:22.925Z,16.17
2018-08-10T00:42:51.634Z,15.90
2018-08-10T00:45:20.698Z,13.13
2018-08-10T00:47:49.793Z,12.85
2018-08-10T00:50:18.820Z,12.80
2018-08-10T00:52:48.302Z,14.43
2018-08-10T00:55:17.915Z,12.43
2018-08-10T00:57:47.165Z,13.13
2018-08-10T01:00:21.055Z,11.90
2018-08-10T01:02:49.817Z,12.77
2018-08-10T01:05:18.416Z,11.75
2018-08-10T01:07:47.018Z,12.40
2018-08-10T01:10:17.430Z,11.73
2018-08-10T01:12:46.084Z,11.55
2018-08-10T01:15:15.899Z,11.97
2018-08-10T01:17:45.409Z,12.60
2018-08-10T01:20:19.429Z,11.63
2018-08-10T01:22:53.470Z,12.15
2018-08-10T01:25:23.582Z,12.63
2018-08-10T01:28:00.561Z,12.60
2018-08-10T01:30:30.248Z,12.15
2018-08-10T01:32:59.446Z,12.10
2018-08-10T01:35:28.566Z,11.67
2018-08-10T01:37:58.372Z,14.33
2018-08-10T01:40:27.146Z,15.35
2018-08-10T01:42:55.748Z,13.97
2018-08-10T01:45:24.249Z,14.87
2018-08-10T01:47:53.040Z,16.03
2018-08-10T01:50:21.628Z,16.73
2018-08-10T01:52:50.154Z,18.07
2018-08-10T01:55:18.737Z,17.33
2018-08-10T01:57:47.340Z,16.55
2018-08-10T02:00:15.897Z,16.82
2018-08-10T02:02:44.430Z,18.07
2018-08-10T02:05:14.144Z,17.17
2018-08-10T02:07:43.269Z,18.37
2018-08-10T02:10:13.861Z,18.75
2018-08-10T02:12:43.399Z,20.37
2018-08-10T02:15:15.109Z,18.77
2018-08-10T02:17:43.720Z,18.15
2018-08-10T02:20:13.829Z,18.77
2018-08-10T02:22:42.500Z,20.60
2018-08-10T02:25:12.557Z,20.27
2018-08-10T02:27:42.250Z,21.57
2018-08-10T02:30:12.369Z,19.15
2018-08-10T02:32:41.868Z,18.85
2018-08-10T02:35:10.459Z,21.05
2018-08-10T02:37:39.608Z,19.20
2018-08-10T02:40:15.719Z,19.65
2018-08-10T02:42:45.513Z,20.08
2018-08-10T02:45:14.500Z,19.75
2018-08-10T02:47:43.092Z,21.00
2018-08-10T02:50:11.670Z,22.48
2018-08-10T02:52:40.253Z,18.82
2018-08-10T02:55:10.057Z,19.40
2018-08-10T02:57:39.062Z,18.20
2018-08-10T03:00:09.682Z,19.95
2018-08-10T03:02:38.218Z,19.37
2018-08-10T03:05:07.813Z,21.20
2018-08-10T03:07:36.669Z,20.72
2018-08-10T03:10:06.587Z,19.70
2018-08-10T03:12:35.137Z,21.80
2018-08-10T03:15:03.754Z,20.15
2018-08-10T03:17:32.358Z,20.43
2018-08-10T03:20:00.925Z,21.27
2018-08-10T03:22:29.442Z,19.80
2018-08-10T03:24:57.974Z,19.33
2018-08-10T03:27:26.550Z,21.33
2018-08-10T03:29:55.086Z,20.57
2018-08-10T03:32:23.755Z,19.02
2018-08-10T03:34:52.336Z,18.23
2018-08-10T03:37:20.852Z,20.32
2018-08-10T03:39:49.364Z,18.15
2018-08-10T03:42:17.862Z,18.82
2018-08-10T03:44:46.376Z,21.10
2018-08-10T03:47:14.944Z,20.00
2018-08-10T03:49:43.537Z,20.70
2018-08-10T03:52:12.121Z,18.02
2018-08-10T03:54:40.683Z,19.73
2018-08-10T03:57:09.194Z,19.60
2018-08-10T03:59:37.787Z,20.43
2018-08-10T04:02:06.460Z,19.70
2018-08-10T04:04:35.146Z,19.07
2018-08-10T04:07:03.675Z,19.17
2018-08-10T04:09:32.223Z,16.55
2018-08-10T04:12:00.748Z,16.93
2018-08-10T04:14:29.273Z,16.12
2018-08-10T04:16:57.818Z,16.50
2018-08-10T04:19:26.350Z,15.60
2018-08-10T04:21:54.889Z,16.32
2018-08-10T04:24:23.454Z,16.52
2018-08-10T04:26:52.001Z,13.32
2018-08-10T04:29:20.545Z,14.33
2018-08-10T04:31:49.094Z,13.95
2018-08-10T04:34:18.232Z,13.60
2018-08-10T04:36:46.773Z,11.28
2018-08-10T04:39:15.346Z,11.38
2018-08-10T04:41:43.921Z,12.58
2018-08-10T04:44:13.297Z,11.05
2018-08-10T04:46:41.849Z,10.85
2018-08-10T04:49:10.389Z,9.78
2018-08-10T04:51:39.027Z,10.80
2018-08-10T04:54:08.069Z,10.05
2018-08-10T04:56:36.601Z,8.63
2018-08-10T04:59:05.297Z,8.55
2018-08-10T05:01:33.840Z,8.30
2018-08-10T05:04:02.407Z,8.20
2018-08-10T05:06:30.918Z,6.50
2018-08-10T05:08:59.463Z,8.53
2018-08-10T05:11:27.997Z,9.20
2018-08-10T05:13:56.525Z,6.87
2018-08-10T05:16:25.098Z,7.10
2018-08-10T05:18:54.111Z,6.63
2018-08-10T05:21:22.628Z,5.85
2018-08-10T05:23:51.200Z,5.65
2018-08-10T05:26:19.724Z,4.97
2018-08-10T05:28:48.223Z,4.10
2018-08-10T05:31:16.768Z,3.93
2018-08-10T05:33:45.520Z,3.70
2018-08-10T05:36:14.307Z,3.33
2018-08-10T05:38:42.842Z,4.30
2018-08-10T05:41:11.776Z,2.53
2018-08-10T05:43:40.794Z,2.90
2018-08-10T05:46:09.582Z,2.73
2018-08-10T05:48:41.239Z,2.20
2018-08-10T05:51:12.586Z,1.97
2018-08-10T05:53:41.604Z,2.43
2018-08-10T05:56:10.554Z,2.27
2018-08-10T05:58:39.391Z,2.53
2018-08-10T06:01:08.143Z,2.40
2018-08-10T06:03:36.687Z,2.10
2018-08-10T06:06:05.245Z,2.00
2018-08-10T06:08:33.742Z,1.90
2018-08-10T06:11:02.264Z,2.30
2018-08-10T06:13:30.785Z,2.83
2018-08-10T06:15:59.323Z,2.40
2018-08-10T06:18:27.830Z,3.07
2018-08-10T06:20:56.369Z,3.60
2018-08-10T06:23:24.864Z,2.93
2018-08-10T06:25:53.387Z,3.47
2018-08-10T06:28:22.006Z,2.67
2018-08-10T06:30:50.652Z,3.40
2018-08-10T06:33:19.173Z,2.50
2018-08-10T06:35:47.745Z,3.27
2018-08-10T06:38:16.244Z,2.43
2018-08-10T06:40:44.743Z,2.87
2018-08-10T06:43:13.285Z,2.63
2018-08-10T06:45:41.867Z,3.33
2018-08-10T06:48:10.532Z,2.40
2018-08-10T06:50:39.061Z,1.80
2018-08-10T06:53:07.631Z,1.97
2018-08-10T06:55:36.213Z,2.27
2018-08-10T06:58:05.198Z,1.90
2018-08-10T07:00:33.819Z,2.23
2018-08-10T07:03:02.240Z,2.20
2018-08-10T07:05:30.884Z,2.07
2018-08-10T07:07:59.416Z,1.87
2018-08-10T07:10:27.941Z,1.60
2018-08-10T07:12:56.454Z,2.03
2018-08-10T07:15:25.050Z,2.27
2018-08-10T07:17:53.594Z,1.50
2018-08-10T07:20:22.225Z,1.20
2018-08-10T07:22:50.785Z,1.93
2018-08-10T07:25:19.369Z,2.40
2018-08-10T07:27:47.981Z,1.10
2018-08-10T07:30:16.497Z,1.37
2018-08-10T07:32:45.049Z,1.60
2018-08-10T07:35:13.582Z,2.47
2018-08-10T07:37:42.094Z,1.47
2018-08-10T07:40:10.614Z,1.80
2018-08-10T07:42:39.118Z,1.30
2018-08-10T07:45:07.655Z,2.60
2018-08-10T07:47:36.190Z,1.70
2018-08-10T07:50:05.220Z,1.13
2018-08-10T07:52:33.732Z,2.37
2018-08-10T07:55:02.259Z,2.90
2018-08-10T07:57:30.863Z,1.40
2018-08-10T07:59:59.426Z,1.30
2018-08-10T08:02:28.059Z,1.47
2018-08-10T08:04:56.667Z,1.60
2018-08-10T08:07:25.169Z,1.30
2018-08-10T08:09:53.695Z,1.73
2018-08-10T08:12:57.318Z,1.33
2018-08-10T08:15:25.876Z,2.10
2018-08-10T08:17:54.472Z,1.20
2018-08-10T08:20:23.042Z,1.27
2018-08-10T08:22:59.553Z,1.10
2018-08-10T08:25:28.429Z,1.63
2018-08-10T08:27:57.017Z,2.10
2018-08-10T08:30:25.538Z,1.43
2018-08-10T08:32:54.079Z,1.03
2018-08-10T08:35:22.633Z,2.20
2018-08-10T08:37:51.154Z,1.90
2018-08-10T08:40:22.742Z,1.97
2018-08-10T08:42:51.815Z,1.33
2018-08-10T08:46:00.291Z,1.60
2018-08-10T08:48:30.236Z,0.90
2018-08-10T08:51:02.432Z,0.90
2018-08-10T08:53:31.009Z,1.20
2018-08-10T08:56:16.531Z,1.20
2018-08-10T08:58:46.274Z,1.43
2018-08-10T09:01:15.186Z,1.40
2018-08-10T09:05:02.009Z,1.20
2018-08-10T09:07:31.311Z,1.00
2018-08-10T09:15:46.211Z,0.80
2018-08-10T09:18:14.765Z,1.23
2018-08-10T09:20:43.310Z,0.60
2018-08-10T09:23:11.956Z,1.00
2018-08-10T09:25:40.501Z,1.00
2018-08-10T09:28:09.210Z,1.00
2018-08-10T09:30:37.857Z,1.23
2018-08-10T09:33:07.318Z,0.93
2018-08-10T09:35:35.866Z,0.77
2018-08-10T09:38:07.591Z,0.73
2018-08-10T09:40:36.123Z,1.30
2018-08-10T09:43:04.675Z,0.47
2018-08-10T09:45:33.217Z,0.80
2018-08-10T09:48:01.823Z,1.13
2018-08-10T09:50:30.356Z,1.00
2018-08-10T09:53:04.222Z,1.00
2018-08-10T09:55:37.992Z,0.60
2018-08-10T09:58:10.136Z,0.90
2018-08-10T10:00:44.055Z,0.77
2018-08-10T10:03:22.912Z,1.33
2018-08-10T10:05:52.402Z,1.20
2018-08-10T10:08:21.485Z,0.93
2018-08-10T10:10:50.080Z,1.13
2018-08-10T10:13:18.648Z,1.17
2018-08-10T10:15:47.203Z,1.33
2018-08-10T10:18:16.898Z,1.10
2018-08-10T10:20:46.360Z,1.83
2018-08-10T10:23:14.889Z,1.50
2018-08-10T10:25:43.483Z,2.00
2018-08-10T10:28:12.089Z,2.20
2018-08-10T10:30:40.685Z,2.07
2018-08-10T10:33:09.288Z,2.00
2018-08-10T10:35:37.805Z,1.67
2018-08-10T10:38:06.686Z,1.90
2018-08-10T10:40:35.234Z,1.33
2018-08-10T10:43:03.770Z,1.13
2018-08-10T10:45:32.303Z,1.37
2018-08-10T10:48:00.880Z,1.30
2018-08-10T10:50:29.422Z,1.17
2018-08-10T10:52:58.036Z,1.20
2018-08-10T10:55:26.688Z,1.50
2018-08-10T10:57:55.252Z,1.20
2018-08-10T11:00:23.812Z,1.63
2018-08-10T11:02:52.426Z,1.00
2018-08-10T11:05:21.004Z,1.30
2018-08-10T11:07:49.519Z,1.70
2018-08-10T11:10:19.204Z,1.70
2018-08-10T11:12:47.759Z,2.70
2018-08-10T11:15:16.283Z,1.20
2018-08-10T11:17:44.886Z,1.20
2018-08-10T11:20:13.932Z,0.60
2018-08-10T11:22:42.915Z,1.30
2018-08-10T11:25:12.986Z,2.30
2018-08-10T11:27:42.337Z,1.60
2018-08-10T11:30:11.233Z,1.30
2018-08-10T11:32:40.134Z,0.80
2018-08-10T11:35:09.300Z,1.50
2018-08-10T11:37:37.887Z,1.07
2018-08-10T11:40:09.696Z,0.67
2018-08-10T11:42:39.468Z,0.70
2018-08-10T11:45:11.348Z,1.23
2018-08-10T11:47:40.225Z,0.53
2018-08-10T11:50:08.824Z,0.57
2018-08-10T11:52:37.466Z,1.07
2018-08-10T11:55:07.058Z,0.90
2018-08-10T11:57:35.691Z,0.50
2018-08-10T12:00:05.204Z,0.50
2018-08-10T12:02:33.894Z,0.70
2018-08-10T12:05:02.416Z,1.23
2018-08-10T12:07:30.953Z,0.90
2018-08-10T12:10:00.416Z,0.60
2018-08-10T12:12:28.964Z,0.97
2018-08-10T12:14:57.466Z,0.40
2018-08-10T12:17:25.982Z,0.80
2018-08-10T12:19:54.490Z,0.70
2018-08-10T12:22:23.070Z,0.67
2018-08-10T12:24:51.674Z,0.67
2018-08-10T12:27:20.237Z,0.80
2018-08-10T12:29:48.778Z,0.47
2018-08-10T12:32:17.303Z,0.50
2018-08-10T12:34:45.994Z,0.50
2018-08-10T12:37:14.583Z,0.60
2018-08-10T12:39:43.176Z,0.67
2018-08-10T12:42:11.951Z,0.97
2018-08-10T12:44:40.479Z,0.80
2018-08-10T12:47:09.019Z,0.63
2018-08-10T12:49:37.603Z,0.60
2018-08-10T12:52:06.191Z,0.60
2018-08-10T12:54:34.726Z,1.00
2018-08-10T12:57:03.419Z,0.50
2018-08-10T12:59:31.999Z,0.60
2018-08-10T13:02:00.504Z,0.50
2018-08-10T13:04:29.035Z,0.80
2018-08-10T13:06:57.552Z,0.77
2018-08-10T13:09:26.112Z,0.60
2018-08-10T13:11:54.633Z,1.90
2018-08-10T13:14:23.202Z,1.17
2018-08-10T13:16:51.764Z,1.00
2018-08-10T13:19:20.309Z,0.60
2018-08-10T13:21:48.893Z,0.63
2018-08-10T13:24:17.406Z,0.70
2018-08-10T13:26:45.962Z,0.60
2018-08-10T13:29:14.479Z,0.97
2018-08-10T13:31:43.016Z,0.50
2018-08-10T13:34:11.554Z,0.90
2018-08-10T13:36:40.209Z,0.50
2018-08-10T13:39:10.826Z,0.40
2018-08-10T13:41:40.213Z,0.97
2018-08-10T13:44:08.840Z,0.80
2018-08-10T13:46:37.408Z,0.70
2018-08-10T13:49:06.006Z,0.40
2018-08-10T13:51:34.644Z,0.70
2018-08-10T13:54:03.264Z,0.80
2018-08-10T13:56:31.940Z,0.47
2018-08-10T13:59:00.525Z,0.90
2018-08-10T14:01:29.063Z,0.50
2018-08-10T14:03:57.607Z,0.83
2018-08-10T14:06:26.397Z,0.60
2018-08-10T14:08:54.928Z,0.57
2018-08-10T14:11:23.505Z,0.53
2018-08-10T14:13:52.065Z,0.70
2018-08-10T14:16:20.585Z,0.70
2018-08-10T14:18:49.200Z,0.43
2018-08-10T14:21:17.704Z,0.70
2018-08-10T14:23:46.352Z,0.73
2018-08-10T14:26:14.916Z,0.50
2018-08-10T14:28:43.443Z,0.40
2018-08-10T14:31:11.969Z,0.60
2018-08-10T14:33:40.533Z,0.60
2018-08-10T14:36:09.063Z,0.80
2018-08-10T14:38:37.691Z,0.60
2018-08-10T14:41:06.465Z,0.50
2018-08-10T14:43:35.029Z,0.50
2018-08-10T14:46:03.586Z,0.40
2018-08-10T14:48:32.159Z,1.00
2018-08-10T14:51:00.701Z,1.03
2018-08-10T14:53:29.318Z,0.40
2018-08-10T14:55:57.895Z,0.60
2018-08-10T14:58:26.480Z,0.40
2018-08-10T15:00:55.134Z,0.80
2018-08-10T15:03:23.673Z,0.70
2018-08-10T15:05:52.237Z,0.57
2018-08-10T15:08:20.784Z,0.50
2018-08-10T15:10:49.344Z,0.40
2018-08-10T15:13:18.057Z,0.70
2018-08-10T15:15:46.560Z,0.53
2018-08-10T15:18:15.157Z,1.53
2018-08-10T15:20:43.705Z,0.40
2018-08-10T15:23:12.290Z,0.80
2018-08-10T15:25:40.832Z,0.50
2018-08-10T15:28:09.463Z,0.70
2018-08-10T15:30:38.047Z,1.43
2018-08-10T15:33:06.958Z,1.17
2018-08-10T15:35:35.521Z,0.83
2018-08-10T15:38:04.116Z,0.70
2018-08-10T15:40:32.741Z,1.40
2018-08-10T15:43:01.401Z,1.00
2018-08-10T15:45:30.001Z,1.30
2018-08-10T15:47:58.542Z,0.50
2018-08-10T15:50:27.234Z,1.17
2018-08-10T15:52:55.814Z,0.60
2018-08-10T15:55:24.326Z,0.70
2018-08-10T15:57:52.939Z,1.00
2018-08-10T16:00:22.920Z,0.60
2018-08-10T16:02:51.508Z,0.90
2018-08-10T16:05:20.131Z,0.50
2018-08-10T16:07:48.674Z,1.20
2018-08-10T16:10:17.245Z,0.80
2018-08-10T16:12:45.999Z,0.70
2018-08-10T16:15:18.652Z,0.90
2018-08-10T16:17:47.498Z,0.80
2018-08-10T16:20:17.617Z,1.20
2018-08-10T16:22:46.310Z,1.17
2018-08-10T16:25:15.685Z,1.03
2018-08-10T16:27:44.907Z,0.70
2018-08-10T16:30:14.826Z,0.73
2018-08-10T16:32:44.539Z,1.50
2018-08-10T16:35:14.258Z,1.27
2018-08-10T16:37:43.993Z,0.70
2018-08-10T16:40:14.093Z,0.73
2018-08-10T16:42:43.071Z,0.83
2018-08-10T16:45:12.595Z,1.10
2018-08-10T16:47:41.778Z,0.63
2018-08-10T16:50:14.561Z,0.87
2018-08-10T16:52:43.796Z,1.17
2018-08-10T16:55:15.242Z,0.90
2018-08-10T16:57:44.734Z,0.90
2018-08-10T17:00:18.742Z,0.80
2018-08-10T17:02:47.942Z,0.60
2018-08-10T17:05:16.584Z,1.27
2018-08-10T17:07:46.008Z,0.83
2018-08-10T17:10:14.624Z,0.83
2018-08-10T17:12:44.412Z,0.77
2018-08-10T17:15:14.537Z,0.77
2018-08-10T17:17:44.187Z,0.70
2018-08-10T17:20:13.266Z,0.87
2018-08-10T17:22:42.637Z,0.57
2018-08-10T17:25:12.810Z,0.63
2018-08-10T17:27:41.353Z,1.47
2018-08-10T17:30:12.382Z,1.10
2018-08-10T17:32:40.934Z,1.03
2018-08-10T17:35:11.032Z,1.20
2018-08-10T17:37:39.880Z,0.70
2018-08-10T17:40:09.316Z,1.60
2018-08-10T17:42:38.370Z,1.10
2018-08-10T17:45:13.026Z,1.00
2018-08-10T17:47:41.596Z,0.90
2018-08-10T17:50:13.562Z,0.80
2018-08-10T17:52:45.533Z,0.80
2018-08-10T17:55:15.245Z,0.80
2018-08-10T17:57:44.122Z,1.30
2018-08-10T18:00:15.702Z,1.03
2018-08-10T18:02:44.724Z,1.27
2018-08-10T18:05:14.375Z,1.27
2018-08-10T18:07:43.032Z,0.73
2018-08-10T18:10:12.498Z,2.13
2018-08-10T18:12:41.678Z,0.73
2018-08-10T18:15:12.367Z,1.53
2018-08-10T18:17:41.596Z,0.80
2018-08-10T18:20:14.537Z,0.80
2018-08-10T18:22:44.711Z,0.93
2018-08-10T18:25:14.416Z,1.07
2018-08-10T18:27:43.639Z,0.93
2018-08-10T18:30:15.790Z,0.90
2018-08-10T18:32:44.693Z,1.33
2018-08-10T18:35:13.253Z,1.13
2018-08-10T18:37:42.659Z,0.67
2018-08-10T18:40:12.944Z,0.90
2018-08-10T18:42:42.602Z,0.83
2018-08-10T18:45:12.651Z,0.80
2018-08-10T18:47:41.533Z,0.60
2018-08-10T18:50:11.960Z,1.00
2018-08-10T18:52:40.743Z,0.80
2018-08-10T18:55:11.024Z,1.00
2018-08-10T18:57:40.158Z,0.97
2018-08-10T19:00:11.263Z,0.70
2018-08-10T19:02:40.048Z,1.13
2018-08-10T19:05:10.835Z,1.13
2018-08-10T19:07:39.505Z,0.70
2018-08-10T19:10:09.239Z,0.73
2018-08-10T19:12:38.409Z,1.07
2018-08-10T19:15:10.619Z,1.00
2018-08-10T19:17:39.611Z,0.60
2018-08-10T19:20:09.283Z,1.10
2018-08-10T19:22:38.406Z,1.07
2018-08-10T19:25:08.650Z,1.00
2018-08-10T19:27:37.228Z,0.97
2018-08-10T19:30:08.621Z,1.17
2018-08-10T19:32:37.214Z,0.70
2018-08-10T19:35:06.186Z,0.83
2018-08-10T19:37:34.798Z,0.90
2018-08-10T19:40:03.334Z,2.87
2018-08-10T19:42:31.861Z,1.00
2018-08-10T19:45:00.399Z,2.40
2018-08-10T19:47:29.052Z,1.00
2018-08-10T19:49:57.591Z,1.03
2018-08-10T19:52:26.294Z,0.70
2018-08-10T19:54:54.841Z,0.47
2018-08-10T19:57:23.384Z,1.00
2018-08-10T19:59:53.124Z,1.07
2018-08-10T20:02:21.637Z,0.73
2018-08-10T20:04:50.258Z,0.90
2018-08-10T20:07:18.836Z,0.70
2018-08-10T20:09:47.402Z,0.70
2018-08-10T20:12:15.933Z,0.77
2018-08-10T20:14:44.599Z,1.00
2018-08-10T20:17:13.153Z,0.80
2018-08-10T20:19:41.710Z,0.90
2018-08-10T20:22:16.972Z,1.40
2018-08-10T20:24:46.517Z,1.17
2018-08-10T20:27:15.068Z,1.20
2018-08-10T20:29:43.688Z,1.00
2018-08-10T20:32:12.202Z,1.00
2018-08-10T20:34:40.746Z,0.83
2018-08-10T20:37:09.313Z,0.90
2018-08-10T20:39:37.857Z,0.60
2018-08-10T20:42:06.639Z,0.63
2018-08-10T20:44:35.218Z,0.87
2018-08-10T20:47:03.876Z,1.07
2018-08-10T20:49:32.421Z,1.10
2018-08-10T20:52:01.027Z,1.33
2018-08-10T20:54:29.581Z,1.10
2018-08-10T20:56:58.186Z,0.90
2018-08-10T20:59:26.721Z,0.63
2018-08-10T21:01:55.251Z,1.00
2018-08-10T21:04:23.929Z,0.60
2018-08-10T21:06:52.544Z,0.87
2018-08-10T21:09:21.092Z,1.10
2018-08-10T21:11:49.636Z,1.40
2018-08-10T21:14:18.159Z,0.80
2018-08-10T21:16:46.717Z,0.80
2018-08-10T21:19:15.292Z,1.13
2018-08-10T21:21:43.783Z,0.83
2018-08-10T21:24:12.307Z,1.53
2018-08-10T21:26:40.899Z,0.80
2018-08-10T21:29:09.453Z,1.33
2018-08-10T21:31:37.970Z,1.10
2018-08-10T21:34:06.512Z,0.83
2018-08-10T21:36:35.080Z,1.07
2018-08-10T21:39:04.641Z,1.10
2018-08-10T21:41:33.167Z,0.73
2018-08-10T21:44:01.735Z,0.67
2018-08-10T21:46:30.297Z,1.57
2018-08-10T21:48:58.868Z,1.17
2018-08-10T21:51:27.453Z,0.97
2018-08-10T21:53:56.464Z,0.70
2018-08-10T21:56:25.033Z,1.17
2018-08-10T21:58:53.665Z,1.10
2018-08-10T22:01:22.320Z,1.40
2018-08-10T22:03:50.844Z,0.80
2018-08-10T22:06:19.416Z,0.90
2018-08-10T22:08:47.944Z,1.00
2018-08-10T22:11:16.559Z,1.37
2018-08-10T22:13:50.492Z,0.80
2018-08-10T22:16:24.462Z,0.90
2018-08-10T22:18:58.395Z,0.90
2018-08-10T22:21:26.968Z,1.07
2018-08-10T22:23:55.491Z,1.33
2018-08-10T22:26:24.067Z,1.20
2018-08-10T22:28:52.628Z,1.00
2018-08-10T22:31:21.154Z,1.07
2018-08-10T22:33:49.718Z,0.77
2018-08-10T22:36:18.214Z,0.90
2018-08-10T22:38:46.761Z,1.00
2018-08-10T22:41:15.322Z,1.07
2018-08-10T22:43:43.819Z,1.23
2018-08-10T22:46:12.369Z,1.90
2018-08-10T22:48:40.949Z,0.60
2018-08-10T22:51:09.588Z,0.97
2018-08-10T22:53:38.166Z,1.30
2018-08-10T22:56:07.082Z,1.27
2018-08-10T22:58:35.742Z,1.60
2018-08-10T23:01:04.555Z,1.67
2018-08-10T23:03:33.071Z,1.17
2018-08-10T23:06:01.702Z,2.20
2018-08-10T23:08:30.321Z,3.00
2018-08-10T23:10:58.840Z,2.20
2018-08-10T23:13:27.394Z,2.17
2018-08-10T23:15:56.018Z,2.70
2018-08-10T23:18:24.600Z,3.87
2018-08-10T23:20:53.185Z,4.23
2018-08-10T23:23:21.761Z,2.90
2018-08-10T23:25:50.418Z,2.90
2018-08-10T23:28:19.154Z,3.73
2018-08-10T23:30:47.724Z,3.93
2018-08-10T23:33:16.266Z,3.80
2018-08-10T23:35:44.819Z,5.10
2018-08-10T23:38:13.361Z,5.00
2018-08-10T23:40:41.934Z,5.00
2018-08-10T23:43:10.459Z,5.03
2018-08-10T23:45:38.985Z,5.20
2018-08-10T23:48:08.170Z,5.53
2018-08-10T23:50:36.732Z,5.87
2018-08-10T23:53:05.290Z,5.30
2018-08-10T23:55:33.908Z,5.67
2018-08-10T23:58:02.519Z,5.20
